sensor_id;sensor_type;location;lat;lon;timestamp;pressure;altitude;pressure_sealevel;temperature;humidity
18500;BME280;9379;52.134;11.576;2022-07-10T00:02:12;101537.53;;;19.28;65.20
18500;BME280;9379;52.134;11.576;2022-07-10T00:04:39;101536.88;;;19.10;65.26
18500;BME280;9379;52.134;11.576;2022-07-10T00:07:06;101534.50;;;18.90;66.74
18500;BME280;9379;52.134;11.576;2022-07-10T00:09:32;101538.69;;;18.85;65.77
18500;BME280;9379;52.134;11.576;2022-07-10T00:12:00;101529.47;;;19.36;64.79
18500;BME280;9379;52.134;11.576;2022-07-10T00:14:28;101533.50;;;19.48;64.95
18500;BME280;9379;52.134;11.576;2022-07-10T00:16:54;101534.81;;;19.52;65.50
18500;BME280;9379;52.134;11.576;2022-07-10T00:19:21;101533.59;;;19.88;64.12
18500;BME280;9379;52.134;11.576;2022-07-10T00:21:48;101525.41;;;19.48;65.21
18500;BME280;9379;52.134;11.576;2022-07-10T00:24:14;101522.22;;;18.80;65.58
18500;BME280;9379;52.134;11.576;2022-07-10T00:26:41;101521.53;;;18.94;65.35
18500;BME280;9379;52.134;11.576;2022-07-10T00:29:08;101527.97;;;19.01;65.19
18500;BME280;9379;52.134;11.576;2022-07-10T00:31:36;101529.81;;;19.17;65.82
18500;BME280;9379;52.134;11.576;2022-07-10T00:34:03;101520.41;;;18.38;66.13
18500;BME280;9379;52.134;11.576;2022-07-10T00:36:29;101519.88;;;19.01;66.54
18500;BME280;9379;52.134;11.576;2022-07-10T00:38:56;101521.38;;;19.04;65.65
18500;BME280;9379;52.134;11.576;2022-07-10T00:41:23;101515.63;;;19.39;64.84
18500;BME280;9379;52.134;11.576;2022-07-10T00:43:54;101521.41;;;19.12;65.95
18500;BME280;9379;52.134;11.576;2022-07-10T00:46:21;101512.41;;;19.44;66.25
18500;BME280;9379;52.134;11.576;2022-07-10T00:48:49;101511.97;;;19.24;66.44
18500;BME280;9379;52.134;11.576;2022-07-10T00:51:17;101514.81;;;18.82;67.89
18500;BME280;9379;52.134;11.576;2022-07-10T00:53:44;101512.25;;;18.72;68.01
18500;BME280;9379;52.134;11.576;2022-07-10T00:56:12;101496.47;;;18.93;67.55
18500;BME280;9379;52.134;11.576;2022-07-10T00:58:40;101506.81;;;18.56;68.19
18500;BME280;9379;52.134;11.576;2022-07-10T01:01:07;101501.00;;;19.09;67.67
18500;BME280;9379;52.134;11.576;2022-07-10T01:03:34;101505.38;;;19.35;66.76
18500;BME280;9379;52.134;11.576;2022-07-10T01:06:02;101493.09;;;19.00;67.34
18500;BME280;9379;52.134;11.576;2022-07-10T01:08:30;101498.81;;;19.05;67.54
18500;BME280;9379;52.134;11.576;2022-07-10T01:10:57;101498.47;;;19.16;68.06
18500;BME280;9379;52.134;11.576;2022-07-10T01:13:24;101499.47;;;18.74;68.79
18500;BME280;9379;52.134;11.576;2022-07-10T01:15:51;101479.41;;;18.60;68.88
18500;BME280;9379;52.134;11.576;2022-07-10T01:18:18;101488.00;;;19.21;68.71
18500;BME280;9379;52.134;11.576;2022-07-10T01:20:45;101491.72;;;19.28;67.58
18500;BME280;9379;52.134;11.576;2022-07-10T01:23:13;101491.41;;;19.15;68.96
18500;BME280;9379;52.134;11.576;2022-07-10T01:25:40;101492.25;;;19.07;69.26
18500;BME280;9379;52.134;11.576;2022-07-10T01:28:06;101495.94;;;19.14;69.05
18500;BME280;9379;52.134;11.576;2022-07-10T01:30:33;101492.59;;;18.88;69.94
18500;BME280;9379;52.134;11.576;2022-07-10T01:33:00;101486.88;;;18.91;70.22
18500;BME280;9379;52.134;11.576;2022-07-10T01:35:26;101487.53;;;19.17;69.19
18500;BME280;9379;52.134;11.576;2022-07-10T01:37:53;101491.56;;;18.81;70.24
18500;BME280;9379;52.134;11.576;2022-07-10T01:40:21;101488.63;;;18.50;70.80
18500;BME280;9379;52.134;11.576;2022-07-10T01:42:48;101490.72;;;18.80;71.06
18500;BME280;9379;52.134;11.576;2022-07-10T01:45:16;101486.00;;;18.82;70.46
18500;BME280;9379;52.134;11.576;2022-07-10T01:47:43;101485.84;;;18.92;70.18
18500;BME280;9379;52.134;11.576;2022-07-10T01:50:10;101479.63;;;18.67;70.54
18500;BME280;9379;52.134;11.576;2022-07-10T01:52:37;101485.00;;;18.83;70.78
18500;BME280;9379;52.134;11.576;2022-07-10T01:55:04;101484.31;;;18.73;70.56
18500;BME280;9379;52.134;11.576;2022-07-10T01:57:33;101463.38;;;18.34;70.98
18500;BME280;9379;52.134;11.576;2022-07-10T02:00:00;101481.94;;;18.54;71.35
18500;BME280;9379;52.134;11.576;2022-07-10T02:02:26;101476.19;;;18.49;71.73
18500;BME280;9379;52.134;11.576;2022-07-10T02:04:53;101481.50;;;18.24;72.00
18500;BME280;9379;52.134;11.576;2022-07-10T02:07:19;101478.41;;;18.53;71.16
18500;BME280;9379;52.134;11.576;2022-07-10T02:09:47;101485.34;;;18.88;70.77
18500;BME280;9379;52.134;11.576;2022-07-10T02:12:14;101481.41;;;18.50;71.24
18500;BME280;9379;52.134;11.576;2022-07-10T02:14:43;101481.53;;;18.32;71.68
18500;BME280;9379;52.134;11.576;2022-07-10T02:17:09;101475.06;;;18.68;71.83
18500;BME280;9379;52.134;11.576;2022-07-10T02:19:36;101482.97;;;18.69;71.35
18500;BME280;9379;52.134;11.576;2022-07-10T02:22:03;101483.63;;;17.70;74.02
18500;BME280;9379;52.134;11.576;2022-07-10T02:24:30;101476.38;;;17.97;73.03
18500;BME280;9379;52.134;11.576;2022-07-10T02:26:57;101477.00;;;17.91;73.59
18500;BME280;9379;52.134;11.576;2022-07-10T02:29:23;101463.78;;;17.97;72.44
18500;BME280;9379;52.134;11.576;2022-07-10T02:31:52;101472.25;;;17.76;73.46
18500;BME280;9379;52.134;11.576;2022-07-10T02:34:18;101472.16;;;18.53;71.49
18500;BME280;9379;52.134;11.576;2022-07-10T02:36:45;101458.72;;;18.02;73.94
18500;BME280;9379;52.134;11.576;2022-07-10T02:39:12;101467.13;;;17.65;73.79
18500;BME280;9379;52.134;11.576;2022-07-10T02:41:38;101465.38;;;17.82;73.27
18500;BME280;9379;52.134;11.576;2022-07-10T02:44:06;101468.31;;;17.97;72.95
18500;BME280;9379;52.134;11.576;2022-07-10T02:46:33;101456.56;;;18.06;72.66
18500;BME280;9379;52.134;11.576;2022-07-10T02:49:01;101474.91;;;17.25;75.23
18500;BME280;9379;52.134;11.576;2022-07-10T02:51:29;101460.91;;;17.13;75.61
18500;BME280;9379;52.134;11.576;2022-07-10T02:53:56;101472.44;;;17.57;75.46
18500;BME280;9379;52.134;11.576;2022-07-10T02:56:22;101467.44;;;17.10;76.51
18500;BME280;9379;52.134;11.576;2022-07-10T02:58:49;101478.03;;;17.12;76.82
18500;BME280;9379;52.134;11.576;2022-07-10T03:01:16;101453.81;;;17.30;75.82
18500;BME280;9379;52.134;11.576;2022-07-10T03:03:42;101475.53;;;16.92;77.66
18500;BME280;9379;52.134;11.576;2022-07-10T03:06:10;101467.88;;;17.24;76.76
18500;BME280;9379;52.134;11.576;2022-07-10T03:08:37;101478.00;;;17.30;76.97
18500;BME280;9379;52.134;11.576;2022-07-10T03:11:04;101477.16;;;16.85;78.72
18500;BME280;9379;52.134;11.576;2022-07-10T03:13:30;101477.44;;;16.47;81.81
18500;BME280;9379;52.134;11.576;2022-07-10T03:15:57;101492.00;;;16.17;84.48
18500;BME280;9379;52.134;11.576;2022-07-10T03:18:23;101480.72;;;16.58;86.28
18500;BME280;9379;52.134;11.576;2022-07-10T03:20:50;101478.50;;;16.54;86.91
18500;BME280;9379;52.134;11.576;2022-07-10T03:23:18;101481.69;;;16.22;88.32
18500;BME280;9379;52.134;11.576;2022-07-10T03:25:45;101483.66;;;16.20;87.49
18500;BME280;9379;52.134;11.576;2022-07-10T03:28:12;101466.84;;;16.45;88.27
18500;BME280;9379;52.134;11.576;2022-07-10T03:30:38;101476.66;;;16.09;88.98
18500;BME280;9379;52.134;11.576;2022-07-10T03:33:05;101480.31;;;15.90;90.67
18500;BME280;9379;52.134;11.576;2022-07-10T03:35:32;101488.84;;;16.03;90.84
18500;BME280;9379;52.134;11.576;2022-07-10T03:37:58;101485.16;;;16.04;91.80
18500;BME280;9379;52.134;11.576;2022-07-10T03:40:27;101486.00;;;16.32;90.94
18500;BME280;9379;52.134;11.576;2022-07-10T03:42:53;101482.31;;;16.51;89.90
18500;BME280;9379;52.134;11.576;2022-07-10T03:45:20;101476.28;;;16.67;88.90
18500;BME280;9379;52.134;11.576;2022-07-10T03:47:47;101481.38;;;16.70;89.16
18500;BME280;9379;52.134;11.576;2022-07-10T03:50:14;101479.75;;;16.95;88.68
18500;BME280;9379;52.134;11.576;2022-07-10T03:52:40;101475.22;;;16.96;88.73
18500;BME280;9379;52.134;11.576;2022-07-10T03:55:08;101482.13;;;16.98;88.48
18500;BME280;9379;52.134;11.576;2022-07-10T03:57:36;101484.78;;;16.62;89.76
18500;BME280;9379;52.134;11.576;2022-07-10T04:00:21;101480.38;;;16.71;89.63
18500;BME280;9379;52.134;11.576;2022-07-10T04:02:49;101493.63;;;16.10;92.35
18500;BME280;9379;52.134;11.576;2022-07-10T04:05:20;101488.31;;;16.63;91.22
18500;BME280;9379;52.134;11.576;2022-07-10T04:07:47;101485.47;;;16.64;90.43
18500;BME280;9379;52.134;11.576;2022-07-10T04:10:14;101484.00;;;16.52;90.33
18500;BME280;9379;52.134;11.576;2022-07-10T04:12:42;101471.69;;;16.77;89.37
18500;BME280;9379;52.134;11.576;2022-07-10T04:15:10;101473.75;;;17.01;87.71
18500;BME280;9379;52.134;11.576;2022-07-10T04:17:37;101473.81;;;17.09;87.15
18500;BME280;9379;52.134;11.576;2022-07-10T04:20:05;101468.28;;;16.40;89.05
18500;BME280;9379;52.134;11.576;2022-07-10T04:22:32;101468.97;;;16.42;89.98
18500;BME280;9379;52.134;11.576;2022-07-10T04:24:59;101456.75;;;16.57;88.64
18500;BME280;9379;52.134;11.576;2022-07-10T04:27:26;101475.69;;;16.73;88.89
18500;BME280;9379;52.134;11.576;2022-07-10T04:29:54;101473.63;;;17.29;88.24
18500;BME280;9379;52.134;11.576;2022-07-10T04:32:21;101462.78;;;17.38;89.17
18500;BME280;9379;52.134;11.576;2022-07-10T04:34:48;101464.66;;;17.46;89.63
18500;BME280;9379;52.134;11.576;2022-07-10T04:37:15;101459.25;;;17.38;87.79
18500;BME280;9379;52.134;11.576;2022-07-10T04:39:42;101453.47;;;16.81;88.32
18500;BME280;9379;52.134;11.576;2022-07-10T04:42:09;101462.56;;;17.32;89.69
18500;BME280;9379;52.134;11.576;2022-07-10T04:44:36;101458.88;;;17.33;89.18
18500;BME280;9379;52.134;11.576;2022-07-10T04:47:05;101457.03;;;17.67;86.76
18500;BME280;9379;52.134;11.576;2022-07-10T04:49:32;101458.44;;;17.45;88.13
18500;BME280;9379;52.134;11.576;2022-07-10T04:51:59;101469.28;;;17.36;88.98
18500;BME280;9379;52.134;11.576;2022-07-10T04:54:25;101466.81;;;17.42;87.46
18500;BME280;9379;52.134;11.576;2022-07-10T04:56:52;101466.13;;;17.40;86.33
18500;BME280;9379;52.134;11.576;2022-07-10T04:59:19;101474.53;;;16.94;87.70
18500;BME280;9379;52.134;11.576;2022-07-10T05:01:46;101474.78;;;17.52;86.94
18500;BME280;9379;52.134;11.576;2022-07-10T05:04:14;101468.81;;;17.66;86.57
18500;BME280;9379;52.134;11.576;2022-07-10T05:06:40;101456.59;;;17.46;85.83
18500;BME280;9379;52.134;11.576;2022-07-10T05:09:07;101467.75;;;17.33;86.33
18500;BME280;9379;52.134;11.576;2022-07-10T05:11:34;101459.19;;;17.04;87.00
18500;BME280;9379;52.134;11.576;2022-07-10T05:14:01;101474.25;;;17.23;89.55
18500;BME280;9379;52.134;11.576;2022-07-10T05:16:28;101463.06;;;17.35;86.06
18500;BME280;9379;52.134;11.576;2022-07-10T05:18:54;101467.44;;;17.36;86.54
18500;BME280;9379;52.134;11.576;2022-07-10T05:21:22;101469.19;;;17.19;86.88
18500;BME280;9379;52.134;11.576;2022-07-10T05:23:50;101473.00;;;17.61;85.12
18500;BME280;9379;52.134;11.576;2022-07-10T05:26:17;101470.81;;;17.64;84.86
18500;BME280;9379;52.134;11.576;2022-07-10T05:28:44;101463.13;;;17.43;85.86
18500;BME280;9379;52.134;11.576;2022-07-10T05:31:10;101464.31;;;17.15;87.33
18500;BME280;9379;52.134;11.576;2022-07-10T05:33:37;101465.03;;;17.25;85.99
18500;BME280;9379;52.134;11.576;2022-07-10T05:36:08;101468.69;;;16.98;86.53
18500;BME280;9379;52.134;11.576;2022-07-10T05:38:42;101467.75;;;17.33;86.20
18500;BME280;9379;52.134;11.576;2022-07-10T05:41:11;101466.44;;;17.11;87.75
18500;BME280;9379;52.134;11.576;2022-07-10T05:43:38;101475.56;;;17.44;88.42
18500;BME280;9379;52.134;11.576;2022-07-10T05:46:05;101471.72;;;17.47;85.74
18500;BME280;9379;52.134;11.576;2022-07-10T05:48:32;101470.63;;;17.32;86.40
18500;BME280;9379;52.134;11.576;2022-07-10T05:50:58;101471.59;;;17.57;84.66
18500;BME280;9379;52.134;11.576;2022-07-10T05:53:25;101478.47;;;17.51;85.96
18500;BME280;9379;52.134;11.576;2022-07-10T05:55:53;101479.34;;;17.34;84.93
18500;BME280;9379;52.134;11.576;2022-07-10T05:58:20;101460.94;;;17.39;84.32
18500;BME280;9379;52.134;11.576;2022-07-10T06:00:47;101479.41;;;18.02;84.00
18500;BME280;9379;52.134;11.576;2022-07-10T06:03:15;101475.28;;;17.82;83.41
18500;BME280;9379;52.134;11.576;2022-07-10T06:05:42;101470.78;;;17.90;84.19
18500;BME280;9379;52.134;11.576;2022-07-10T06:08:10;101474.75;;;17.00;84.17
18500;BME280;9379;52.134;11.576;2022-07-10T06:10:37;101479.69;;;17.13;86.86
18500;BME280;9379;52.134;11.576;2022-07-10T06:13:06;101477.09;;;17.21;85.59
18500;BME280;9379;52.134;11.576;2022-07-10T06:15:33;101482.91;;;16.90;86.59
18500;BME280;9379;52.134;11.576;2022-07-10T06:17:59;101478.84;;;17.30;86.80
18500;BME280;9379;52.134;11.576;2022-07-10T06:20:26;101486.16;;;17.46;87.42
18500;BME280;9379;52.134;11.576;2022-07-10T06:22:53;101464.59;;;17.64;84.34
18500;BME280;9379;52.134;11.576;2022-07-10T06:25:20;101476.91;;;17.40;84.68
18500;BME280;9379;52.134;11.576;2022-07-10T06:27:47;101471.81;;;17.11;84.92
18500;BME280;9379;52.134;11.576;2022-07-10T06:30:15;101483.31;;;17.21;85.44
18500;BME280;9379;52.134;11.576;2022-07-10T06:32:42;101486.91;;;17.30;87.08
18500;BME280;9379;52.134;11.576;2022-07-10T06:35:09;101476.72;;;17.42;86.04
18500;BME280;9379;52.134;11.576;2022-07-10T06:37:36;101483.53;;;17.54;83.90
18500;BME280;9379;52.134;11.576;2022-07-10T06:40:04;101481.41;;;17.66;83.70
18500;BME280;9379;52.134;11.576;2022-07-10T06:42:31;101471.81;;;17.63;85.20
18500;BME280;9379;52.134;11.576;2022-07-10T06:44:58;101474.97;;;17.33;83.56
18500;BME280;9379;52.134;11.576;2022-07-10T06:47:26;101471.13;;;17.09;84.21
18500;BME280;9379;52.134;11.576;2022-07-10T06:50:10;101464.44;;;16.70;85.40
18500;BME280;9379;52.134;11.576;2022-07-10T06:52:37;101481.31;;;16.80;84.89
18500;BME280;9379;52.134;11.576;2022-07-10T06:55:04;101470.47;;;16.89;85.57
18500;BME280;9379;52.134;11.576;2022-07-10T06:57:32;101480.66;;;17.04;83.95
18500;BME280;9379;52.134;11.576;2022-07-10T06:59:58;101481.19;;;17.33;84.60
18500;BME280;9379;52.134;11.576;2022-07-10T07:02:27;101487.13;;;16.93;84.31
18500;BME280;9379;52.134;11.576;2022-07-10T07:04:53;101489.56;;;17.04;83.74
18500;BME280;9379;52.134;11.576;2022-07-10T07:07:20;101488.59;;;17.31;82.21
18500;BME280;9379;52.134;11.576;2022-07-10T07:09:47;101483.44;;;17.38;82.82
18500;BME280;9379;52.134;11.576;2022-07-10T07:12:15;101490.84;;;17.18;82.77
18500;BME280;9379;52.134;11.576;2022-07-10T07:14:41;101470.94;;;16.85;82.68
18500;BME280;9379;52.134;11.576;2022-07-10T07:17:08;101489.59;;;17.12;81.39
18500;BME280;9379;52.134;11.576;2022-07-10T07:19:38;101491.16;;;17.41;81.33
18500;BME280;9379;52.134;11.576;2022-07-10T07:22:24;101489.41;;;17.58;81.32
18500;BME280;9379;52.134;11.576;2022-07-10T07:25:09;101483.19;;;17.57;79.99
18500;BME280;9379;52.134;11.576;2022-07-10T07:27:37;101459.41;;;17.96;80.92
18500;BME280;9379;52.134;11.576;2022-07-10T07:30:05;101485.00;;;18.17;78.40
18500;BME280;9379;52.134;11.576;2022-07-10T07:32:32;101479.72;;;17.65;78.75
18500;BME280;9379;52.134;11.576;2022-07-10T07:35:00;101487.22;;;17.79;79.31
18500;BME280;9379;52.134;11.576;2022-07-10T07:37:38;101483.22;;;17.83;78.99
18500;BME280;9379;52.134;11.576;2022-07-10T07:40:06;101479.69;;;18.33;77.08
18500;BME280;9379;52.134;11.576;2022-07-10T07:42:34;101487.84;;;18.07;78.08
18500;BME280;9379;52.134;11.576;2022-07-10T07:45:01;101468.81;;;18.00;76.94
18500;BME280;9379;52.134;11.576;2022-07-10T07:47:29;101489.47;;;17.66;76.82
18500;BME280;9379;52.134;11.576;2022-07-10T07:49:56;101486.22;;;17.54;76.59
18500;BME280;9379;52.134;11.576;2022-07-10T07:52:24;101473.47;;;18.41;76.04
18500;BME280;9379;52.134;11.576;2022-07-10T07:54:51;101476.16;;;18.41;76.53
18500;BME280;9379;52.134;11.576;2022-07-10T07:57:17;101479.75;;;17.99;76.02
18500;BME280;9379;52.134;11.576;2022-07-10T07:59:44;101480.78;;;18.14;76.26
18500;BME280;9379;52.134;11.576;2022-07-10T08:02:11;101484.91;;;18.34;75.67
18500;BME280;9379;52.134;11.576;2022-07-10T08:04:38;101490.38;;;18.08;75.17
18500;BME280;9379;52.134;11.576;2022-07-10T08:07:04;101468.47;;;17.95;75.38
18500;BME280;9379;52.134;11.576;2022-07-10T08:09:32;101474.97;;;18.35;76.96
18500;BME280;9379;52.134;11.576;2022-07-10T08:12:00;101462.63;;;18.08;74.98
18500;BME280;9379;52.134;11.576;2022-07-10T08:14:27;101450.22;;;18.23;74.21
18500;BME280;9379;52.134;11.576;2022-07-10T08:16:53;101466.94;;;18.43;75.00
18500;BME280;9379;52.134;11.576;2022-07-10T08:19:20;101469.59;;;18.35;73.85
18500;BME280;9379;52.134;11.576;2022-07-10T08:21:47;101441.63;;;18.12;72.12
18500;BME280;9379;52.134;11.576;2022-07-10T08:24:13;101467.94;;;18.58;72.53
18500;BME280;9379;52.134;11.576;2022-07-10T08:26:42;101457.41;;;18.81;71.67
18500;BME280;9379;52.134;11.576;2022-07-10T08:29:09;101463.81;;;18.64;72.03
18500;BME280;9379;52.134;11.576;2022-07-10T08:31:36;101472.72;;;18.73;72.69
18500;BME280;9379;52.134;11.576;2022-07-10T08:34:05;101438.50;;;18.57;71.50
18500;BME280;9379;52.134;11.576;2022-07-10T08:36:31;101463.16;;;18.28;71.78
18500;BME280;9379;52.134;11.576;2022-07-10T08:38:58;101463.91;;;18.62;72.23
18500;BME280;9379;52.134;11.576;2022-07-10T08:41:26;101453.19;;;18.95;70.89
18500;BME280;9379;52.134;11.576;2022-07-10T08:43:54;101464.31;;;18.76;70.59
18500;BME280;9379;52.134;11.576;2022-07-10T08:46:21;101453.19;;;18.79;70.08
18500;BME280;9379;52.134;11.576;2022-07-10T08:48:53;101457.69;;;18.62;68.36
18500;BME280;9379;52.134;11.576;2022-07-10T08:51:24;101451.25;;;19.61;67.76
18500;BME280;9379;52.134;11.576;2022-07-10T08:53:54;101449.63;;;20.22;65.85
18500;BME280;9379;52.134;11.576;2022-07-10T08:56:22;101448.25;;;19.95;65.31
18500;BME280;9379;52.134;11.576;2022-07-10T08:58:52;101453.38;;;19.73;64.95
18500;BME280;9379;52.134;11.576;2022-07-10T09:01:21;101451.91;;;19.54;64.97
18500;BME280;9379;52.134;11.576;2022-07-10T09:03:49;101438.53;;;18.98;65.77
18500;BME280;9379;52.134;11.576;2022-07-10T09:06:16;101440.38;;;19.13;65.41
18500;BME280;9379;52.134;11.576;2022-07-10T09:08:58;101440.19;;;19.23;66.20
18500;BME280;9379;52.134;11.576;2022-07-10T09:11:25;101452.97;;;19.45;64.68
18500;BME280;9379;52.134;11.576;2022-07-10T09:13:55;101447.22;;;19.32;65.30
18500;BME280;9379;52.134;11.576;2022-07-10T09:16:25;101440.47;;;19.44;65.34
18500;BME280;9379;52.134;11.576;2022-07-10T09:18:52;101440.25;;;19.70;65.17
18500;BME280;9379;52.134;11.576;2022-07-10T09:21:19;101434.63;;;20.19;63.85
18500;BME280;9379;52.134;11.576;2022-07-10T09:23:46;101443.66;;;20.03;63.16
18500;BME280;9379;52.134;11.576;2022-07-10T09:26:14;101432.84;;;19.64;63.81
18500;BME280;9379;52.134;11.576;2022-07-10T09:28:41;101441.97;;;19.63;65.26
18500;BME280;9379;52.134;11.576;2022-07-10T09:31:07;101430.56;;;19.37;68.60
18500;BME280;9379;52.134;11.576;2022-07-10T09:33:36;101444.09;;;18.72;67.87
18500;BME280;9379;52.134;11.576;2022-07-10T09:36:06;101457.69;;;18.62;68.40
18500;BME280;9379;52.134;11.576;2022-07-10T09:38:54;101457.41;;;18.89;68.58
18500;BME280;9379;52.134;11.576;2022-07-10T09:41:24;101450.84;;;18.76;68.17
18500;BME280;9379;52.134;11.576;2022-07-10T09:43:53;101453.16;;;18.87;68.28
18500;BME280;9379;52.134;11.576;2022-07-10T09:46:23;101428.22;;;19.34;67.85
18500;BME280;9379;52.134;11.576;2022-07-10T09:49:02;101404.34;;;19.06;66.61
18500;BME280;9379;52.134;11.576;2022-07-10T09:51:30;101429.22;;;19.88;66.07
18500;BME280;9379;52.134;11.576;2022-07-10T09:54:00;101425.41;;;20.59;62.92
18500;BME280;9379;52.134;11.576;2022-07-10T09:56:32;101427.72;;;21.08;62.30
18500;BME280;9379;52.134;11.576;2022-07-10T09:59:00;101423.50;;;22.09;60.49
18500;BME280;9379;52.134;11.576;2022-07-10T10:01:28;101422.00;;;22.42;59.51
18500;BME280;9379;52.134;11.576;2022-07-10T10:03:58;101411.91;;;21.49;60.24
18500;BME280;9379;52.134;11.576;2022-07-10T10:06:27;101420.41;;;21.32;60.41
18500;BME280;9379;52.134;11.576;2022-07-10T10:08:59;101406.16;;;20.62;61.23
18500;BME280;9379;52.134;11.576;2022-07-10T10:11:32;101406.34;;;20.61;64.20
18500;BME280;9379;52.134;11.576;2022-07-10T10:14:01;101410.50;;;20.18;62.88
18500;BME280;9379;52.134;11.576;2022-07-10T10:16:29;101399.56;;;20.42;61.61
18500;BME280;9379;52.134;11.576;2022-07-10T10:18:56;101405.53;;;20.29;61.99
18500;BME280;9379;52.134;11.576;2022-07-10T10:21:43;101412.09;;;20.58;61.27
18500;BME280;9379;52.134;11.576;2022-07-10T10:24:11;101407.44;;;20.21;61.47
18500;BME280;9379;52.134;11.576;2022-07-10T10:26:40;101417.81;;;20.09;60.93
18500;BME280;9379;52.134;11.576;2022-07-10T10:29:08;101414.31;;;20.00;61.73
18500;BME280;9379;52.134;11.576;2022-07-10T10:31:36;101420.25;;;20.27;62.34
18500;BME280;9379;52.134;11.576;2022-07-10T10:34:03;101415.78;;;20.34;61.99
18500;BME280;9379;52.134;11.576;2022-07-10T10:36:47;101412.03;;;21.04;60.52
18500;BME280;9379;52.134;11.576;2022-07-10T10:39:16;101412.06;;;21.92;58.59
18500;BME280;9379;52.134;11.576;2022-07-10T10:41:49;101408.84;;;21.67;57.32
18500;BME280;9379;52.134;11.576;2022-07-10T10:44:20;101407.47;;;21.93;55.03
18500;BME280;9379;52.134;11.576;2022-07-10T10:47:08;101415.09;;;22.40;55.63
18500;BME280;9379;52.134;11.576;2022-07-10T10:49:48;101394.53;;;21.88;55.69
18500;BME280;9379;52.134;11.576;2022-07-10T10:52:17;101415.38;;;22.09;57.01
18500;BME280;9379;52.134;11.576;2022-07-10T10:55:08;101416.88;;;21.31;57.37
18500;BME280;9379;52.134;11.576;2022-07-10T10:57:41;101412.16;;;21.10;57.94
18500;BME280;9379;52.134;11.576;2022-07-10T11:00:15;101405.44;;;21.21;58.96
18500;BME280;9379;52.134;11.576;2022-07-10T11:03:17;101403.94;;;22.71;56.55
18500;BME280;9379;52.134;11.576;2022-07-10T11:05:45;101377.22;;;23.24;56.07
18500;BME280;9379;52.134;11.576;2022-07-10T11:08:13;101398.16;;;23.37;54.81
18500;BME280;9379;52.134;11.576;2022-07-10T11:10:42;101396.53;;;23.08;54.07
18500;BME280;9379;52.134;11.576;2022-07-10T11:13:10;101397.19;;;22.60;53.33
18500;BME280;9379;52.134;11.576;2022-07-10T11:15:39;101393.44;;;22.19;54.71
18500;BME280;9379;52.134;11.576;2022-07-10T11:18:08;101387.72;;;21.77;56.43
18500;BME280;9379;52.134;11.576;2022-07-10T11:20:37;101388.66;;;21.70;56.11
18500;BME280;9379;52.134;11.576;2022-07-10T11:23:22;101387.53;;;21.79;56.31
18500;BME280;9379;52.134;11.576;2022-07-10T11:25:59;101366.38;;;22.68;53.91
18500;BME280;9379;52.134;11.576;2022-07-10T11:28:41;101385.53;;;23.16;53.38
18500;BME280;9379;52.134;11.576;2022-07-10T11:31:13;101392.44;;;22.90;53.25
18500;BME280;9379;52.134;11.576;2022-07-10T11:33:41;101372.94;;;23.84;52.88
18500;BME280;9379;52.134;11.576;2022-07-10T11:36:13;101381.91;;;23.78;52.59
18500;BME280;9379;52.134;11.576;2022-07-10T11:38:42;101379.91;;;24.06;51.09
18500;BME280;9379;52.134;11.576;2022-07-10T11:41:13;101388.44;;;23.90;51.63
18500;BME280;9379;52.134;11.576;2022-07-10T11:43:50;101371.09;;;23.09;53.31
18500;BME280;9379;52.134;11.576;2022-07-10T11:46:18;101367.88;;;22.70;53.52
18500;BME280;9379;52.134;11.576;2022-07-10T11:48:45;101370.06;;;22.82;53.35
18500;BME280;9379;52.134;11.576;2022-07-10T11:51:20;101361.19;;;23.64;52.84
18500;BME280;9379;52.134;11.576;2022-07-10T11:54:00;101355.06;;;23.14;53.15
18500;BME280;9379;52.134;11.576;2022-07-10T11:56:29;101364.84;;;23.49;51.24
18500;BME280;9379;52.134;11.576;2022-07-10T11:58:58;101369.47;;;23.55;51.45
18500;BME280;9379;52.134;11.576;2022-07-10T12:01:27;101359.53;;;23.28;52.67
18500;BME280;9379;52.134;11.576;2022-07-10T12:03:59;101353.53;;;23.80;52.55
18500;BME280;9379;52.134;11.576;2022-07-10T12:06:26;101351.28;;;23.97;52.73
18500;BME280;9379;52.134;11.576;2022-07-10T12:08:54;101348.69;;;23.69;52.32
18500;BME280;9379;52.134;11.576;2022-07-10T12:11:22;101341.75;;;23.60;54.42
18500;BME280;9379;52.134;11.576;2022-07-10T12:13:50;101339.91;;;24.55;52.61
18500;BME280;9379;52.134;11.576;2022-07-10T12:16:19;101346.38;;;23.73;50.44
18500;BME280;9379;52.134;11.576;2022-07-10T12:18:47;101340.28;;;22.88;52.44
18500;BME280;9379;52.134;11.576;2022-07-10T12:21:15;101339.03;;;22.84;53.66
18500;BME280;9379;52.134;11.576;2022-07-10T12:23:44;101341.88;;;23.04;53.61
18500;BME280;9379;52.134;11.576;2022-07-10T12:26:12;101350.78;;;22.70;54.91
18500;BME280;9379;52.134;11.576;2022-07-10T12:28:56;101347.13;;;23.53;50.91
18500;BME280;9379;52.134;11.576;2022-07-10T12:31:24;101343.16;;;23.56;51.99
18500;BME280;9379;52.134;11.576;2022-07-10T12:33:56;101344.81;;;24.18;52.48
18500;BME280;9379;52.134;11.576;2022-07-10T12:36:40;101343.59;;;24.27;50.32
18500;BME280;9379;52.134;11.576;2022-07-10T12:39:08;101341.38;;;23.63;49.85
18500;BME280;9379;52.134;11.576;2022-07-10T12:41:35;101333.94;;;23.92;49.67
18500;BME280;9379;52.134;11.576;2022-07-10T12:44:35;101342.25;;;23.83;49.18
18500;BME280;9379;52.134;11.576;2022-07-10T12:47:03;101343.56;;;24.01;49.81
18500;BME280;9379;52.134;11.576;2022-07-10T12:49:48;101334.69;;;23.66;50.23
18500;BME280;9379;52.134;11.576;2022-07-10T12:52:19;101337.91;;;23.41;50.72
18500;BME280;9379;52.134;11.576;2022-07-10T12:54:47;101339.69;;;23.62;51.07
18500;BME280;9379;52.134;11.576;2022-07-10T12:57:14;101342.09;;;23.09;51.61
18500;BME280;9379;52.134;11.576;2022-07-10T12:59:42;101347.53;;;23.50;50.08